Time;durP1;ratioP1;P1;durP2;ratioP2;P2;SDS_P1;SDS_P2;PMS_P1;PMS_P2;Temp;Humidity;BMP_temperature;BMP_pressure;BME280_temperature;BME280_humidity;BME280_pressure;Samples;Min_cycle;Max_cycle;Signal;HPM_P1;HPM_P2
2022/09/11 00:01:39;;;;;;;5.25;4.72;;;;;;;17.14;100.00;99509.47;4885291;29;20036;-81
2022/09/11 00:04:05;;;;;;;11.02;5.10;;;;;;;17.08;100.00;99515.66;4870156;29;20178;-81
2022/09/11 00:06:31;;;;;;;11.23;5.18;;;;;;;16.81;100.00;99503.56;4870171;29;20037;-82
2022/09/11 00:09:00;;;;;;;9.93;5.32;;;;;;;16.98;100.00;99508.22;4880423;29;20181;-81
2022/09/11 00:11:33;;;;;;;9.77;5.43;;;;;;;16.92;100.00;99509.94;4884562;29;20032;-81
2022/09/11 00:13:59;;;;;;;5.85;5.00;;;;;;;16.96;100.00;99511.09;4898976;29;20475;-82
2022/09/11 00:16:32;;;;;;;7.78;5.70;;;;;;;17.03;100.00;99502.28;4890554;29;20033;-81
2022/09/11 00:19:00;;;;;;;9.75;5.20;;;;;;;16.89;100.00;99510.38;4885275;29;20375;-81
2022/09/11 00:21:28;;;;;;;6.35;5.72;;;;;;;16.96;100.00;99513.75;4877767;29;20415;-82
2022/09/11 00:23:54;;;;;;;6.72;5.30;;;;;;;16.83;100.00;99503.31;4888780;29;20048;-82
2022/09/11 00:26:21;;;;;;;6.38;5.28;;;;;;;16.81;100.00;99497.44;4884603;29;20025;-82
2022/09/11 00:28:49;;;;;;;6.72;5.68;;;;;;;16.62;100.00;99505.41;4888892;29;20378;-82
2022/09/11 00:31:17;;;;;;;9.55;5.85;;;;;;;16.83;100.00;99516.56;4905177;29;20506;-81
2022/09/11 00:33:43;;;;;;;8.23;6.65;;;;;;;16.78;100.00;99503.97;4896029;29;20032;-82
2022/09/11 00:36:13;;;;;;;9.77;7.25;;;;;;;16.75;100.00;99508.94;4893842;29;20044;-81
2022/09/11 00:38:39;;;;;;;8.63;6.45;;;;;;;16.70;100.00;99513.09;4905260;29;20035;-82
2022/09/11 00:41:11;;;;;;;7.80;6.60;;;;;;;16.68;100.00;99509.81;4890097;29;20041;-82
2022/09/11 00:43:49;;;;;;;11.98;6.78;;;;;;;16.70;100.00;99497.19;4898257;29;20164;-82
2022/09/11 00:46:15;;;;;;;7.70;6.28;;;;;;;16.66;100.00;99506.59;4906761;29;20032;-82
2022/09/11 00:48:47;;;;;;;9.93;7.10;;;;;;;16.67;100.00;99505.56;4893377;29;20415;-82
2022/09/11 00:51:13;;;;;;;15.90;7.45;;;;;;;16.49;100.00;99490.50;4907458;29;20486;-82
2022/09/11 00:53:38;;;;;;;13.63;7.55;;;;;;;16.42;100.00;99484.47;4893626;29;20043;-82
2022/09/11 00:56:07;;;;;;;12.02;7.85;;;;;;;16.37;100.00;99493.06;4889684;29;20045;-83
2022/09/11 00:58:37;;;;;;;14.10;8.20;;;;;;;16.25;100.00;99492.19;4890695;29;20024;-84
2022/09/11 01:01:03;;;;;;;14.23;8.10;;;;;;;15.99;100.00;99480.84;4903292;29;20416;-82
2022/09/11 01:03:30;;;;;;;10.63;8.60;;;;;;;15.96;100.00;99494.53;4910395;29;20122;-83
2022/09/11 01:05:59;;;;;;;11.80;8.27;;;;;;;15.83;100.00;99493.59;4905899;29;20037;-83
2022/09/11 01:08:24;;;;;;;10.52;8.32;;;;;;;15.67;100.00;99484.38;4907659;29;20032;-82
2022/09/11 01:11:23;;;;;;;10.18;8.15;;;;;;;15.67;100.00;99491.50;4906126;29;20495;-82
2022/09/11 01:14:27;;;;;;;9.02;7.47;;;;;;;15.54;100.00;99493.25;4907187;29;20032;-80
2022/09/11 01:17:26;;;;;;;11.55;8.27;;;;;;;15.59;100.00;99487.28;4868778;29;20052;-82
2022/09/11 01:20:25;;;;;;;10.30;8.30;;;;;;;15.65;100.00;99493.53;4905978;29;20044;-83
2022/09/11 01:23:17;;;;;;;16.63;8.80;;;;;;;15.60;100.00;99485.47;4892056;29;20044;-82
2022/09/11 01:25:55;;;;;;;16.13;9.02;;;;;;;15.57;100.00;99484.88;4874662;29;20044;-83
2022/09/11 01:28:49;;;;;;;12.93;9.95;;;;;;;15.38;100.00;99478.69;4864500;29;20208;-81
2022/09/11 01:31:20;;;;;;;16.02;9.65;;;;;;;15.41;100.00;99491.47;4883878;29;20032;-82
2022/09/11 01:33:55;;;;;;;16.63;9.85;;;;;;;15.33;100.00;99488.28;4873399;29;20039;-83
2022/09/11 01:36:28;;;;;;;13.50;10.13;;;;;;;15.25;100.00;99476.97;4890115;29;20025;-82
2022/09/11 01:39:01;;;;;;;16.87;9.33;;;;;;;15.19;100.00;99474.34;4886253;29;20021;-83
2022/09/11 01:42:12;;;;;;;15.43;9.73;;;;;;;15.22;100.00;99492.44;4885165;29;20503;-82
2022/09/11 01:44:51;;;;;;;12.38;9.35;;;;;;;15.19;100.00;99491.03;4833950;29;20037;-82
2022/09/11 01:47:19;;;;;;;15.63;10.20;;;;;;;15.05;100.00;99477.09;4885376;29;20479;-83
2022/09/11 01:50:03;;;;;;;18.30;10.23;;;;;;;15.08;100.00;99487.25;4891873;29;20036;-83
2022/09/11 01:52:33;;;;;;;16.27;10.70;;;;;;;14.98;100.00;99486.91;4874007;29;20088;-82
2022/09/11 01:55:15;;;;;;;15.35;9.98;;;;;;;14.97;100.00;99486.09;4885369;29;20032;-82
2022/09/11 01:57:55;;;;;;;11.52;9.43;;;;;;;15.03;100.00;99494.19;4885936;29;20037;-81
2022/09/11 02:00:21;;;;;;;14.82;9.35;;;;;;;15.02;100.00;99476.72;4884149;29;20035;-82
2022/09/11 02:03:17;;;;;;;14.95;9.32;;;;;;;14.99;100.00;99488.50;4870859;29;20448;-82
2022/09/11 02:05:55;;;;;;;15.63;10.02;;;;;;;14.80;100.00;99474.41;4891774;29;20117;-82
2022/09/11 02:08:29;;;;;;;17.08;9.43;;;;;;;14.98;100.00;99487.72;4881588;29;20439;-82
2022/09/11 02:11:06;;;;;;;16.23;9.80;;;;;;;14.91;100.00;99481.63;4887210;29;20041;-83
2022/09/11 02:14:25;;;;;;;15.18;9.65;;;;;;;14.94;100.00;99485.69;4883518;29;20070;-82
2022/09/11 02:17:16;;;;;;;15.82;10.05;;;;;;;15.01;100.00;99488.31;4857806;29;20544;-82
2022/09/11 02:19:42;;;;;;;18.35;9.13;;;;;;;14.91;100.00;99465.00;4870141;29;20516;-82
2022/09/11 02:22:08;;;;;;;12.20;9.48;;;;;;;15.11;100.00;99475.41;4878220;29;20411;-81
2022/09/11 02:24:34;;;;;;;14.38;9.68;;;;;;;15.14;100.00;99475.81;4904797;29;20537;-82
2022/09/11 02:27:03;;;;;;;17.35;10.43;;;;;;;15.10;100.00;99463.22;4884370;29;20032;-82
2022/09/11 02:29:29;;;;;;;17.42;10.90;;;;;;;15.07;100.00;99463.66;4905927;29;20036;-82
2022/09/11 02:31:55;;;;;;;15.20;9.93;;;;;;;15.08;100.00;99455.53;4923796;29;20513;-82
2022/09/11 02:34:26;;;;;;;17.15;11.07;;;;;;;15.06;100.00;99457.56;4890549;29;20036;-82
2022/09/11 02:37:23;;;;;;;17.30;10.38;;;;;;;15.10;100.00;99465.88;4903340;29;20368;-83
2022/09/11 02:40:00;;;;;;;17.02;10.43;;;;;;;15.07;100.00;99458.38;4907100;29;20040;-82
2022/09/11 02:42:32;;;;;;;18.60;11.48;;;;;;;14.97;100.00;99464.94;4892589;29;20395;-83
2022/09/11 02:45:40;;;;;;;18.38;12.43;;;;;;;15.03;100.00;99457.19;4919198;29;20040;-82
2022/09/11 02:48:24;;;;;;;18.63;12.00;;;;;;;14.97;100.00;99449.09;4885604;29;20040;-82
2022/09/11 02:51:08;;;;;;;20.45;11.45;;;;;;;14.95;100.00;99458.25;4904082;29;20471;-82
2022/09/11 02:53:52;;;;;;;;;;;;;;;15.01;100.00;99459.22;4917658;29;20044;-82
2022/09/11 02:56:52;;;;;;;26.50;13.02;;;;;;;14.80;100.00;99440.84;4901964;29;19933;-82
2022/09/11 02:59:51;;;;;;;18.42;12.57;;;;;;;14.67;100.00;99412.63;4891635;29;20052;-81
2022/09/11 03:02:17;;;;;;;24.00;14.18;;;;;;;14.78;100.00;99437.59;4919210;29;20075;-83
2022/09/11 03:04:43;;;;;;;22.48;13.30;;;;;;;14.83;100.00;99432.47;4905726;29;20071;-83
2022/09/11 03:07:08;;;;;;;19.92;13.13;;;;;;;14.89;100.00;99444.03;4870337;29;20036;-83
2022/09/11 03:09:34;;;;;;;19.88;12.07;;;;;;;14.79;100.00;99438.44;4890738;29;20028;-83
2022/09/11 03:12:01;;;;;;;22.02;14.13;;;;;;;14.76;100.00;99452.06;4890147;29;20028;-83
2022/09/11 03:14:26;;;;;;;26.10;12.85;;;;;;;14.73;100.00;99444.53;4903198;29;20040;-83
2022/09/11 03:16:52;;;;;;;21.15;13.13;;;;;;;14.76;100.00;99457.34;4905317;29;20475;-83
2022/09/11 03:19:17;;;;;;;23.55;13.55;;;;;;;14.63;100.00;99458.16;4917711;29;20177;-82
2022/09/11 03:21:43;;;;;;;24.33;13.98;;;;;;;14.58;100.00;99450.91;4901311;29;20099;-82
2022/09/11 03:24:08;;;;;;;29.80;15.45;;;;;;;14.56;100.00;99458.22;4908327;29;20474;-83
2022/09/11 03:26:35;;;;;;;27.27;16.33;;;;;;;14.40;100.00;99454.22;4889038;29;20028;-82
2022/09/11 03:29:02;;;;;;;28.70;15.57;;;;;;;14.38;100.00;99440.41;4902395;29;20040;-82
2022/09/11 03:31:27;;;;;;;26.30;14.30;;;;;;;14.49;100.00;99445.03;4888675;29;20036;-82
2022/09/11 03:33:53;;;;;;;25.92;14.00;;;;;;;14.50;100.00;99448.47;4907076;29;20032;-82
2022/09/11 03:36:19;;;;;;;25.15;15.32;;;;;;;14.48;100.00;99448.72;4904467;29;20537;-82
2022/09/11 03:38:46;;;;;;;26.42;15.43;;;;;;;14.49;100.00;99452.16;4885778;29;20128;-82
2022/09/11 03:41:12;;;;;;;32.83;15.13;;;;;;;14.38;100.00;99438.59;4900492;29;20039;-83
2022/09/11 03:43:38;;;;;;;28.17;14.77;;;;;;;14.39;100.00;99442.84;4906519;29;22093;-83
2022/09/11 03:46:03;;;;;;;27.75;14.85;;;;;;;14.39;100.00;99445.50;4903948;29;20115;-83
2022/09/11 03:48:30;;;;;;;33.28;16.65;;;;;;;14.36;100.00;99443.28;4903428;29;20069;-83
2022/09/11 03:50:57;;;;;;;29.58;15.77;;;;;;;14.34;100.00;99437.38;4908557;29;20399;-83
2022/09/11 03:53:23;;;;;;;26.40;15.80;;;;;;;14.39;100.00;99437.56;4915738;29;20498;-83
2022/09/11 03:55:49;;;;;;;28.85;16.08;;;;;;;14.43;100.00;99438.78;4899516;29;20161;-83
2022/09/11 03:58:18;;;;;;;35.20;17.50;;;;;;;14.41;100.00;99432.88;4899950;29;20108;-82
2022/09/11 04:00:45;;;;;;;35.33;17.35;;;;;;;14.37;100.00;99418.50;4905011;29;20028;-82
2022/09/11 04:03:11;;;;;;;28.17;16.90;;;;;;;14.51;100.00;99431.63;4904944;29;20032;-83
2022/09/11 04:05:37;;;;;;;29.60;17.63;;;;;;;14.35;100.00;99425.81;4907637;29;20099;-82
2022/09/11 04:08:04;;;;;;;30.10;17.20;;;;;;;14.38;100.00;99420.09;4908821;29;20039;-82
2022/09/11 04:10:31;;;;;;;35.13;18.60;;;;;;;14.49;100.00;99421.28;4908825;29;20063;-82
2022/09/11 04:13:02;;;;;;;28.67;15.88;;;;;;;14.43;100.00;99422.91;4922259;29;20028;-82
2022/09/11 04:15:31;;;;;;;25.25;14.50;;;;;;;14.43;100.00;99424.75;4912108;29;20043;-82
2022/09/11 04:17:57;;;;;;;32.65;17.23;;;;;;;14.39;100.00;99424.38;4906915;29;20092;-82
2022/09/11 04:20:23;;;;;;;27.02;16.20;;;;;;;14.32;100.00;99420.94;4907066;29;20035;-81
2022/09/11 04:22:49;;;;;;;23.98;14.75;;;;;;;14.34;100.00;99413.59;4889786;29;20044;-82
2022/09/11 04:25:15;;;;;;;21.30;14.13;;;;;;;14.32;100.00;99417.50;4888715;29;20029;-82
2022/09/11 04:27:41;;;;;;;24.17;13.85;;;;;;;14.16;100.00;99400.31;4888157;29;20077;-81
2022/09/11 04:30:07;;;;;;;29.35;15.13;;;;;;;14.21;100.00;99422.41;4906893;29;20550;-82
2022/09/11 04:32:33;;;;;;;22.13;14.57;;;;;;;14.08;100.00;99403.97;4891174;29;20025;-81
2022/09/11 04:35:00;;;;;;;26.83;15.63;;;;;;;14.04;100.00;99411.50;4897008;29;20033;-81
2022/09/11 04:37:27;;;;;;;25.08;15.63;;;;;;;13.98;100.00;99396.50;4886129;29;20044;-82
2022/09/11 04:39:53;;;;;;;25.42;15.63;;;;;;;14.04;100.00;99400.94;4873245;29;20369;-81
2022/09/11 04:42:19;;;;;;;25.88;15.10;;;;;;;14.15;100.00;99402.13;4893001;29;20040;-82
2022/09/11 04:44:45;;;;;;;30.45;17.83;;;;;;;14.35;100.00;99399.41;4890914;29;20423;-82
2022/09/11 04:47:11;;;;;;;32.83;17.83;;;;;;;14.53;100.00;99411.09;4869812;29;20044;-81
2022/09/11 04:49:39;;;;;;;33.50;17.65;;;;;;;14.68;100.00;99400.25;4888882;29;20037;-82
2022/09/11 04:52:06;;;;;;;35.83;19.30;;;;;;;14.76;100.00;99396.56;4882334;29;20716;-82
2022/09/11 04:54:35;;;;;;;31.67;17.13;;;;;;;14.90;100.00;99394.66;4886758;29;20036;-81
2022/09/11 04:57:02;;;;;;;32.40;18.20;;;;;;;15.03;100.00;99409.59;4898377;29;20033;-81
2022/09/11 04:59:27;;;;;;;29.15;17.30;;;;;;;15.04;100.00;99403.28;4889383;29;20025;-81
2022/09/11 05:01:53;;;;;;;36.00;19.08;;;;;;;15.11;100.00;99418.06;4888789;29;20047;-81
2022/09/11 05:04:19;;;;;;;34.50;18.00;;;;;;;15.13;100.00;99415.22;4889750;29;20029;-83
2022/09/11 05:06:47;;;;;;;31.65;16.92;;;;;;;15.18;100.00;99412.75;4885973;29;20056;-81
2022/09/11 05:09:14;;;;;;;32.83;19.17;;;;;;;15.28;100.00;99418.34;4872215;29;20505;-83
2022/09/11 05:11:40;;;;;;;31.35;17.67;;;;;;;15.26;100.00;99415.09;4869777;29;20036;-81
2022/09/11 05:14:06;;;;;;;35.65;19.15;;;;;;;15.30;100.00;99415.50;4889844;29;20084;-83
2022/09/11 05:16:33;;;;;;;44.45;21.02;;;;;;;15.27;100.00;99411.44;4890143;29;20554;-83
2022/09/11 05:19:00;;;;;;;36.63;18.92;;;;;;;15.39;100.00;99424.75;4889528;29;20044;-84
2022/09/11 05:21:26;;;;;;;38.40;20.20;;;;;;;15.47;100.00;99420.25;4892188;29;20073;-83
2022/09/11 05:23:55;;;;;;;41.28;20.58;;;;;;;15.48;100.00;99419.22;4905713;29;20092;-84
2022/09/11 05:26:26;;;;;;;51.40;24.00;;;;;;;15.55;100.00;99412.00;4889480;29;20036;-83
2022/09/11 05:28:54;;;;;;;55.47;23.35;;;;;;;15.51;100.00;99409.00;4925157;29;20052;-83
2022/09/11 05:31:20;;;;;;;51.92;23.67;;;;;;;15.54;100.00;99416.50;4907190;29;20391;-83
2022/09/11 05:33:45;;;;;;;57.90;24.90;;;;;;;15.59;100.00;99413.19;4905051;29;20034;-83
2022/09/11 05:36:14;;;;;;;55.42;24.60;;;;;;;15.62;100.00;99411.97;4911350;29;20036;-83
2022/09/11 05:38:40;;;;;;;55.72;23.08;;;;;;;15.54;100.00;99405.09;4904308;29;20123;-83
2022/09/11 05:41:10;;;;;;;46.22;21.30;;;;;;;15.60;100.00;99403.44;4904204;29;20062;-83
2022/09/11 05:43:37;;;;;;;66.03;22.48;;;;;;;15.48;100.00;99393.56;4905659;29;20036;-82
2022/09/11 05:46:03;;;;;;;55.58;21.48;;;;;;;15.68;100.00;99421.66;4905299;29;20427;-82
2022/09/11 05:48:30;;;;;;;41.55;19.10;;;;;;;15.72;100.00;99422.84;4888539;29;20032;-82
2022/09/11 05:50:58;;;;;;;44.88;19.05;;;;;;;15.76;100.00;99428.50;4889423;29;20372;-82
2022/09/11 05:53:27;;;;;;;39.53;18.90;;;;;;;15.77;100.00;99420.38;4904533;29;20029;-82
2022/09/11 05:55:54;;;;;;;33.97;16.33;;;;;;;15.74;100.00;99420.81;4923373;29;20047;-83
2022/09/11 05:58:21;;;;;;;39.33;17.73;;;;;;;15.70;100.00;99395.78;4906116;29;20557;-83
2022/09/11 06:00:47;;;;;;;33.58;16.42;;;;;;;15.69;100.00;99405.56;4905662;29;20040;-84
2022/09/11 06:03:14;;;;;;;32.50;16.75;;;;;;;15.76;100.00;99402.88;4902056;29;20039;-82
2022/09/11 06:05:40;;;;;;;35.10;15.27;;;;;;;15.82;100.00;99417.84;4920133;29;20091;-82
2022/09/11 06:08:07;;;;;;;32.83;16.98;;;;;;;15.78;100.00;99411.41;4890118;29;20084;-82
2022/09/11 06:10:34;;;;;;;29.88;15.48;;;;;;;15.83;100.00;99419.47;4875902;29;20028;-82
2022/09/11 06:13:00;;;;;;;70.15;17.45;;;;;;;15.81;100.00;99420.72;4883032;29;20501;-81
2022/09/11 06:15:26;;;;;;;30.35;15.57;;;;;;;15.86;100.00;99418.25;4908527;29;20033;-81
2022/09/11 06:17:52;;;;;;;29.60;15.48;;;;;;;15.88;100.00;99425.94;4905529;29;20115;-80
2022/09/11 06:20:18;;;;;;;41.70;16.05;;;;;;;15.92;100.00;99416.59;4899613;29;20455;-80
2022/09/11 06:22:43;;;;;;;35.72;17.08;;;;;;;15.86;100.00;99407.66;4890338;29;20072;-81
2022/09/11 06:25:09;;;;;;;38.58;17.27;;;;;;;16.05;100.00;99408.47;4882730;29;20033;-80
2022/09/11 06:27:34;;;;;;;39.08;18.70;;;;;;;16.23;100.00;99406.84;4889950;29;20040;-81
2022/09/11 06:30:00;;;;;;;36.33;16.88;;;;;;;16.31;100.00;99409.22;4891057;29;20487;-81
2022/09/11 06:32:25;;;;;;;29.60;15.98;;;;;;;16.44;100.00;99418.00;4885510;29;20035;-81
2022/09/11 06:34:51;;;;;;;37.85;16.92;;;;;;;16.36;100.00;99413.81;4890836;29;20067;-82
2022/09/11 06:37:17;;;;;;;40.42;17.70;;;;;;;16.58;100.00;99426.56;4855147;29;20088;-81
2022/09/11 06:39:42;;;;;;;30.92;16.00;;;;;;;16.78;100.00;99426.31;4888087;29;20029;-80
2022/09/11 06:42:09;;;;;;;30.30;14.85;;;;;;;16.82;100.00;99424.81;4882519;29;20036;-82
2022/09/11 06:44:35;;;;;;;29.67;15.68;;;;;;;16.99;100.00;99425.00;4886936;29;20112;-81
2022/09/11 06:47:01;;;;;;;23.50;14.45;;;;;;;16.99;100.00;99417.88;4887145;29;20128;-84
2022/09/11 06:49:26;;;;;;;23.42;14.32;;;;;;;16.97;100.00;99427.03;4870971;29;20037;-83
2022/09/11 06:51:53;;;;;;;44.38;14.82;;;;;;;16.93;100.00;99431.19;4870975;29;20096;-83
2022/09/11 06:54:18;;;;;;;23.38;13.48;;;;;;;16.97;100.00;99427.88;4885017;29;20060;-81
2022/09/11 06:56:47;;;;;;;20.40;11.80;;;;;;;17.01;100.00;99422.97;4883968;29;20036;-80
2022/09/11 06:59:13;;;;;;;25.08;11.95;;;;;;;16.74;100.00;99422.50;4873980;29;20039;-80
2022/09/11 07:01:38;;;;;;;19.65;11.65;;;;;;;16.80;100.00;99426.91;4886911;29;20032;-81
2022/09/11 07:04:04;;;;;;;16.40;11.20;;;;;;;16.96;100.00;99436.84;4866722;29;20424;-81
2022/09/11 07:06:30;;;;;;;18.40;11.85;;;;;;;16.96;100.00;99434.22;4888339;29;20036;-81
2022/09/11 07:09:01;;;;;;;17.92;11.70;;;;;;;17.03;100.00;99442.09;4851398;29;20051;-81
2022/09/11 07:11:33;;;;;;;17.25;11.38;;;;;;;16.97;100.00;99422.56;4887799;29;20044;-81
2022/09/11 07:14:01;;;;;;;22.25;11.75;;;;;;;16.90;100.00;99424.53;4902895;29;20041;-81
2022/09/11 07:16:27;;;;;;;20.35;10.93;;;;;;;17.03;100.00;99430.66;4866472;29;20036;-81
2022/09/11 07:18:58;;;;;;;18.77;11.73;;;;;;;17.13;100.00;99438.91;4871032;29;20028;-81
2022/09/11 07:21:25;;;;;;;18.75;11.15;;;;;;;17.28;100.00;99436.59;4890007;29;20050;-81
2022/09/11 07:23:57;;;;;;;16.92;11.63;;;;;;;17.32;100.00;99438.81;4903721;29;20028;-81
2022/09/11 07:26:26;;;;;;;15.98;10.68;;;;;;;17.43;100.00;99430.03;4917120;29;20048;-81
2022/09/11 07:28:54;;;;;;;17.38;11.73;;;;;;;17.45;100.00;99432.47;4902952;29;20676;-80
2022/09/11 07:31:28;;;;;;;16.67;10.98;;;;;;;17.48;100.00;99443.41;4889938;29;20081;-82
2022/09/11 07:33:55;;;;;;;16.05;10.95;;;;;;;17.68;100.00;99437.78;4922273;29;20486;-80
2022/09/11 07:36:32;;;;;;;16.88;10.55;;;;;;;17.73;100.00;99429.13;4907754;29;20036;-81
2022/09/11 07:39:08;;;;;;;16.90;11.40;;;;;;;17.90;100.00;99418.59;4919399;29;20570;-80
2022/09/11 07:41:35;;;;;;;16.10;10.95;;;;;;;17.91;100.00;99412.22;4903580;29;20047;-81
2022/09/11 07:44:04;;;;;;;18.77;11.20;;;;;;;18.07;100.00;99418.69;4909487;29;20028;-84
2022/09/11 07:46:31;;;;;;;17.05;10.98;;;;;;;18.20;100.00;99422.94;4893781;29;20032;-82
2022/09/11 07:48:57;;;;;;;17.42;11.50;;;;;;;18.04;100.00;99421.81;4907888;29;20341;-82
2022/09/11 07:51:23;;;;;;;14.48;10.70;;;;;;;18.32;100.00;99430.06;4914078;29;20059;-82
2022/09/11 07:53:50;;;;;;;13.02;9.43;;;;;;;18.48;100.00;99428.53;4906854;29;20051;-80
2022/09/11 07:56:18;;;;;;;14.82;10.10;;;;;;;18.47;100.00;99410.94;4887768;29;20029;-82
2022/09/11 07:58:44;;;;;;;16.25;10.15;;;;;;;18.17;100.00;99411.97;4887554;29;20035;-82
2022/09/11 08:01:13;;;;;;;14.75;10.93;;;;;;;18.27;100.00;99402.34;4919520;29;20032;-82
2022/09/11 08:03:39;;;;;;;18.27;10.57;;;;;;;18.28;100.00;99403.19;4903819;29;20541;-81
2022/09/11 08:06:13;;;;;;;17.20;11.80;;;;;;;18.43;100.00;99415.94;4920538;29;20678;-81
2022/09/11 08:08:40;;;;;;;19.23;11.75;;;;;;;18.34;100.00;99423.47;4915826;29;20040;-82
2022/09/11 08:11:12;;;;;;;17.13;11.55;;;;;;;18.51;100.00;99412.09;4903138;29;20071;-82
2022/09/11 08:13:38;;;;;;;20.38;12.85;;;;;;;18.51;100.00;99412.88;4906352;29;20593;-81
2022/09/11 08:16:04;;;;;;;23.30;15.73;;;;;;;18.67;100.00;99415.84;4904630;29;20037;-80
2022/09/11 08:18:31;;;;;;;24.27;14.48;;;;;;;18.73;100.00;99419.41;4884443;29;20497;-79
2022/09/11 08:21:02;;;;;;;22.80;14.63;;;;;;;18.78;100.00;99393.69;4885862;29;20044;-80
2022/09/11 08:23:30;;;;;;;21.20;14.93;;;;;;;19.07;100.00;99403.50;4904587;29;20948;-81
2022/09/11 08:26:03;;;;;;;21.98;15.02;;;;;;;19.26;100.00;99402.22;4906491;29;20120;-80
2022/09/11 08:28:29;;;;;;;;;;;;;;;19.47;100.00;99405.19;4904128;29;20043;-81
2022/09/11 08:30:57;;;;;;;21.98;14.38;;;;;;;19.40;100.00;99410.66;4887993;29;19915;-81
2022/09/11 08:33:24;;;;;;;24.83;15.30;;;;;;;19.44;100.00;99407.50;4888768;29;20068;-82
2022/09/11 08:35:50;;;;;;;22.65;14.13;;;;;;;19.37;100.00;99399.69;4903861;29;20115;-83
2022/09/11 08:38:18;;;;;;;21.65;14.02;;;;;;;19.51;100.00;99400.16;4903771;29;20045;-82
2022/09/11 08:40:45;;;;;;;19.23;13.75;;;;;;;19.73;100.00;99394.03;4874766;29;20044;-83
2022/09/11 08:43:20;;;;;;;21.13;14.40;;;;;;;19.75;100.00;99403.41;4901904;29;20423;-83
2022/09/11 08:45:47;;;;;;;20.42;14.32;;;;;;;19.84;100.00;99409.91;4906876;29;20096;-84
2022/09/11 08:48:13;;;;;;;19.33;13.73;;;;;;;20.02;100.00;99399.25;4887279;29;20442;-82
2022/09/11 08:50:41;;;;;;;16.33;11.55;;;;;;;20.25;100.00;99403.53;4908200;29;20025;-83
2022/09/11 08:53:17;;;;;;;19.80;13.18;;;;;;;20.00;100.00;99409.34;4895169;29;20127;-82
2022/09/11 08:55:59;;;;;;;18.63;13.07;;;;;;;20.16;100.00;99405.00;4913174;29;20114;-83
2022/09/11 08:59:03;;;;;;;17.48;13.90;;;;;;;20.33;100.00;99412.91;4910606;29;20043;-81
2022/09/11 09:01:42;;;;;;;17.33;12.75;;;;;;;20.50;100.00;99410.16;4851077;29;20117;-81
2022/09/11 09:04:46;;;;;;;20.65;13.98;;;;;;;20.64;100.00;99400.72;4880050;29;20040;-82
2022/09/11 09:07:37;;;;;;;21.38;13.48;;;;;;;20.50;100.00;99418.97;4848054;29;20057;-81
2022/09/11 09:10:30;;;;;;;18.02;12.95;;;;;;;20.56;100.00;99406.50;4853850;29;20046;-82
2022/09/11 09:13:11;;;;;;;18.50;12.48;;;;;;;20.83;100.00;99400.34;4900981;29;20053;-83
2022/09/11 09:15:44;;;;;;;18.55;12.40;;;;;;;20.98;100.00;99413.84;4922389;29;20390;-83
2022/09/11 09:18:13;;;;;;;;;;;;;;;21.11;100.00;99407.25;4908819;29;20033;-82
2022/09/11 09:20:44;;;;;;;16.55;12.20;;;;;;;21.42;100.00;99401.34;4911533;29;19915;-84
2022/09/11 09:23:27;;;;;;;17.90;11.75;;;;;;;21.48;100.00;99400.31;4921259;29;20491;-82
2022/09/11 09:25:54;;;;;;;18.85;12.82;;;;;;;21.30;100.00;99387.38;4905510;29;20043;-84
2022/09/11 09:28:49;;;;;;;18.85;12.73;;;;;;;21.31;100.00;99405.78;4921459;29;20088;-84
2022/09/11 09:31:19;;;;;;;16.02;10.68;;;;;;;21.33;100.00;99386.88;4887649;29;20048;-83
2022/09/11 09:34:00;;;;;;;13.57;9.85;;;;;;;21.88;100.00;99408.03;4906910;29;20455;-84
2022/09/11 09:36:36;;;;;;;14.25;10.52;;;;;;;21.88;100.00;99403.47;4874586;29;20036;-84
2022/09/11 09:39:11;;;;;;;13.90;9.68;;;;;;;21.95;100.00;99398.72;4917606;29;20041;-84
2022/09/11 09:42:04;;;;;;;14.70;10.23;;;;;;;22.16;100.00;99403.31;4909093;29;20044;-84
2022/09/11 09:44:51;;;;;;;14.73;10.43;;;;;;;22.45;100.00;99410.88;4897568;29;20120;-83
2022/09/11 09:47:17;;;;;;;14.43;11.13;;;;;;;22.11;100.00;99396.88;4902212;29;20040;-83
2022/09/11 09:49:44;;;;;;;15.57;10.95;;;;;;;21.95;100.00;99392.53;4904382;29;20471;-84
2022/09/11 09:52:23;;;;;;;14.23;10.68;;;;;;;22.17;100.00;99402.25;4907266;29;20045;-84
2022/09/11 09:54:56;;;;;;;16.40;11.98;;;;;;;22.28;100.00;99406.56;4888010;29;20032;-83
2022/09/11 09:57:25;;;;;;;17.23;11.38;;;;;;;22.26;100.00;99404.13;4908504;29;20040;-84
2022/09/11 09:59:56;;;;;;;18.40;12.02;;;;;;;22.46;100.00;99401.78;4907136;29;20407;-84
2022/09/11 10:02:52;;;;;;;16.73;12.75;;;;;;;22.71;100.00;99400.25;4906919;29;20036;-84
2022/09/11 10:05:24;;;;;;;21.38;14.75;;;;;;;22.46;100.00;99404.47;4890738;29;20409;-83
2022/09/11 10:07:52;;;;;;;19.90;13.82;;;;;;;22.57;100.00;99403.44;4884790;29;20033;-83
2022/09/11 10:10:27;;;;;;;19.48;13.75;;;;;;;22.68;100.00;99398.91;4904683;29;20511;-83
2022/09/11 10:12:56;;;;;;;19.65;14.00;;;;;;;22.32;100.00;99391.59;4906112;29;20368;-83
2022/09/11 10:15:24;;;;;;;20.45;14.68;;;;;;;22.34;100.00;99394.81;4920871;29;20042;-83
2022/09/11 10:17:51;;;;;;;22.15;14.75;;;;;;;22.42;100.00;99387.34;4888989;29;20075;-83
2022/09/11 10:20:25;;;;;;;22.05;15.00;;;;;;;22.57;100.00;99395.41;4905434;29;20521;-83
2022/09/11 10:22:53;;;;;;;23.50;14.68;;;;;;;22.76;100.00;99379.66;4892971;29;20182;-84
2022/09/11 10:25:26;;;;;;;19.63;14.35;;;;;;;23.03;100.00;99377.78;4893083;29;20037;-84
2022/09/11 10:28:04;;;;;;;22.02;14.75;;;;;;;23.12;100.00;99360.09;4871093;29;20031;-84
2022/09/11 10:30:42;;;;;;;19.20;14.18;;;;;;;23.23;100.00;99367.03;4877773;29;20037;-84
2022/09/11 10:33:35;;;;;;;21.92;13.75;;;;;;;23.47;100.00;99365.66;4886898;29;20547;-83
2022/09/11 10:36:04;;;;;;;19.40;14.18;;;;;;;23.16;100.00;99365.72;4886561;29;20029;-84
2022/09/11 10:38:57;;;;;;;19.58;14.40;;;;;;;23.25;100.00;99370.28;4884285;29;20514;-83
2022/09/11 10:41:26;;;;;;;22.40;15.75;;;;;;;22.92;100.00;99367.06;4889055;29;20049;-84
2022/09/11 10:44:02;;;;;;;21.85;16.55;;;;;;;22.58;100.00;99362.22;4883037;29;20116;-83
2022/09/11 10:46:32;;;;;;;21.50;15.57;;;;;;;22.34;100.00;99373.41;4876298;29;20036;-84
2022/09/11 10:48:59;;;;;;;21.38;16.75;;;;;;;22.42;100.00;99373.97;4886783;29;20037;-82
2022/09/11 10:51:28;;;;;;;23.45;17.83;;;;;;;22.31;100.00;99376.63;4900359;29;20052;-83
2022/09/11 10:54:13;;;;;;;25.80;17.67;;;;;;;22.62;100.00;99374.03;4885719;29;20044;-83
2022/09/11 10:56:46;;;;;;;23.58;16.35;;;;;;;22.54;100.00;99370.00;4903549;29;20041;-82
2022/09/11 10:59:21;;;;;;;28.33;17.58;;;;;;;22.76;100.00;99373.47;4884157;29;20041;-82
2022/09/11 11:01:48;;;;;;;23.75;17.05;;;;;;;22.86;100.00;99362.78;4873303;29;20081;-82
2022/09/11 11:04:14;;;;;;;25.88;17.00;;;;;;;22.77;100.00;99356.34;4890747;29;20032;-83
2022/09/11 11:06:42;;;;;;;21.60;16.40;;;;;;;23.00;100.00;99356.91;4879138;29;20047;-82
2022/09/11 11:09:33;;;;;;;22.35;15.88;;;;;;;22.75;100.00;99345.13;4869176;29;20029;-82
2022/09/11 11:12:53;;;;;;;19.80;15.20;;;;;;;23.07;100.00;99341.34;4884408;29;20093;-83
2022/09/11 11:15:46;;;;;;;23.88;14.70;;;;;;;22.93;100.00;99336.56;4852766;29;20175;-82
2022/09/11 11:19:15;;;;;;;23.10;14.57;;;;;;;22.59;100.00;99341.66;4901663;29;20048;-83
2022/09/11 11:22:06;;;;;;;16.67;12.75;;;;;;;22.37;100.00;99346.13;4861243;29;20049;-83
2022/09/11 11:24:34;;;;;;;21.38;14.95;;;;;;;22.55;100.00;99338.69;4865167;29;20120;-82
2022/09/11 11:27:27;;;;;;;20.48;14.55;;;;;;;22.44;100.00;99332.50;4882014;29;20036;-83
2022/09/11 11:30:14;;;;;;;22.63;15.25;;;;;;;22.49;100.00;99326.41;4902974;29;20040;-82
2022/09/11 11:33:08;;;;;;;23.73;15.40;;;;;;;22.29;100.00;99327.94;4905533;29;20456;-82
2022/09/11 11:35:46;;;;;;;29.00;15.48;;;;;;;22.71;100.00;99320.78;4883288;29;20039;-82